createdAt,value
2022-09-17T00:01:28.491Z,7.78
2022-09-17T00:04:00.546Z,6.30
2022-09-17T00:06:28.380Z,8.00
2022-09-17T00:08:56.275Z,7.40
2022-09-17T00:11:28.195Z,7.60
2022-09-17T00:13:56.595Z,8.35
2022-09-17T00:16:29.854Z,7.05
2022-09-17T00:18:58.532Z,8.10
2022-09-17T00:21:26.576Z,6.80
2022-09-17T00:24:02.834Z,6.55
2022-09-17T00:26:31.591Z,8.18
2022-09-17T00:29:00.465Z,7.40
2022-09-17T00:31:29.882Z,6.93
2022-09-17T00:33:59.291Z,7.90
2022-09-17T00:36:27.067Z,8.07
2022-09-17T00:38:57.501Z,9.30
2022-09-17T00:41:27.486Z,9.05
2022-09-17T00:43:58.169Z,10.27
2022-09-17T00:46:25.642Z,8.17
2022-09-17T00:48:55.504Z,9.18
2022-09-17T00:52:00.465Z,7.68
2022-09-17T00:54:28.889Z,8.35
2022-09-17T00:57:00.681Z,8.80
2022-09-17T00:59:28.983Z,6.90
2022-09-17T01:01:56.548Z,6.82
2022-09-17T01:04:26.895Z,6.80
2022-09-17T01:07:18.914Z,8.70
2022-09-17T01:10:07.265Z,8.32
2022-09-17T01:12:44.114Z,5.93
2022-09-17T01:15:33.392Z,7.97
2022-09-17T01:18:09.771Z,6.30
2022-09-17T01:21:23.671Z,7.78
2022-09-17T01:24:05.115Z,6.07
2022-09-17T01:27:01.116Z,5.77
2022-09-17T01:29:42.028Z,6.00
2022-09-17T01:32:13.022Z,6.10
2022-09-17T01:35:11.100Z,10.05
2022-09-17T01:38:06.744Z,7.97
2022-09-17T01:40:46.220Z,6.80
2022-09-17T01:43:27.837Z,6.50
2022-09-17T01:46:01.615Z,6.65
2022-09-17T01:48:35.863Z,7.13
2022-09-17T01:51:11.108Z,6.82
2022-09-17T01:54:00.596Z,7.37
2022-09-17T01:56:39.850Z,8.05
2022-09-17T01:59:28.120Z,7.28
2022-09-17T02:02:03.452Z,5.88
2022-09-17T02:04:37.513Z,7.38
2022-09-17T02:07:11.460Z,5.70
2022-09-17T02:09:53.672Z,6.30
2022-09-17T02:12:27.865Z,6.63
2022-09-17T02:14:59.364Z,6.18
2022-09-17T02:17:29.513Z,6.88
2022-09-17T02:19:59.863Z,6.80
2022-09-17T02:22:50.657Z,6.80
2022-09-17T02:25:29.388Z,6.03
2022-09-17T02:28:04.321Z,5.45
2022-09-17T02:30:32.829Z,6.68
2022-09-17T02:33:05.733Z,7.10
2022-09-17T02:35:34.734Z,6.20
2022-09-17T02:38:02.263Z,7.28
2022-09-17T02:40:36.365Z,6.32
2022-09-17T02:43:20.577Z,5.80
2022-09-17T02:46:00.204Z,7.60
2022-09-17T02:48:45.733Z,7.72
2022-09-17T02:51:21.892Z,6.00
2022-09-17T02:53:59.461Z,5.75
2022-09-17T02:56:34.357Z,7.13
2022-09-17T02:59:12.691Z,6.60
2022-09-17T03:01:45.239Z,8.38
2022-09-17T03:04:16.280Z,7.10
2022-09-17T03:06:46.627Z,8.10
2022-09-17T03:09:17.170Z,10.20
2022-09-17T03:11:44.754Z,8.10
2022-09-17T03:14:12.207Z,9.90
2022-09-17T03:16:39.715Z,9.00
2022-09-17T03:19:07.189Z,9.50
2022-09-17T03:21:34.616Z,9.38
2022-09-17T03:24:02.351Z,9.33
2022-09-17T03:26:30.610Z,9.02
2022-09-17T03:28:59.141Z,9.60
2022-09-17T03:31:26.798Z,13.77
2022-09-17T03:33:54.331Z,9.68
2022-09-17T03:36:21.804Z,10.30
2022-09-17T03:38:49.241Z,9.27
2022-09-17T03:41:16.650Z,9.13
2022-09-17T03:43:44.065Z,11.35
2022-09-17T03:46:11.550Z,9.32
2022-09-17T03:48:39.984Z,12.27
2022-09-17T03:51:07.855Z,10.50
2022-09-17T03:53:35.578Z,10.07
2022-09-17T03:56:05.094Z,11.30
2022-09-17T03:58:33.605Z,10.93
2022-09-17T04:01:04.949Z,10.80
2022-09-17T04:03:33.219Z,11.43
2022-09-17T04:06:00.931Z,9.30
2022-09-17T04:08:28.429Z,9.52
2022-09-17T04:10:55.935Z,9.10
2022-09-17T04:13:23.410Z,10.37
2022-09-17T04:15:52.388Z,10.13
2022-09-17T04:18:19.957Z,10.38
2022-09-17T04:20:47.424Z,9.40
2022-09-17T04:23:15.054Z,10.02
2022-09-17T04:25:43.230Z,10.33
2022-09-17T04:28:10.939Z,9.70
2022-09-17T04:30:40.127Z,9.20
2022-09-17T04:33:10.789Z,9.25
2022-09-17T04:35:38.548Z,10.63
2022-09-17T04:38:06.218Z,7.83
2022-09-17T04:40:33.907Z,8.75
2022-09-17T04:43:03.431Z,8.80
2022-09-17T04:45:33.737Z,9.07
2022-09-17T04:48:02.176Z,7.45
2022-09-17T04:50:30.964Z,9.27
2022-09-17T04:53:01.511Z,6.75
2022-09-17T04:55:31.532Z,8.27
2022-09-17T04:57:59.323Z,8.07
2022-09-17T05:00:26.827Z,8.07
2022-09-17T05:02:55.741Z,7.83
2022-09-17T05:05:24.379Z,7.78
2022-09-17T05:07:54.443Z,6.20
2022-09-17T05:10:23.113Z,8.80
2022-09-17T05:12:56.417Z,7.78
2022-09-17T05:15:25.577Z,8.10
2022-09-17T05:17:53.160Z,8.52
2022-09-17T05:20:20.837Z,6.68
2022-09-17T05:22:51.678Z,9.95
2022-09-17T05:25:24.784Z,8.07
2022-09-17T05:27:56.549Z,7.27
2022-09-17T05:30:24.088Z,7.28
2022-09-17T05:33:00.102Z,7.57
2022-09-17T05:35:29.831Z,9.27
2022-09-17T05:38:03.221Z,7.68
2022-09-17T05:40:31.681Z,8.63
2022-09-17T05:43:00.427Z,7.95
2022-09-17T05:45:28.472Z,10.02
2022-09-17T05:47:57.591Z,7.53
2022-09-17T05:50:26.601Z,7.57
2022-09-17T05:52:54.788Z,8.93
2022-09-17T05:55:24.276Z,7.07
2022-09-17T05:57:53.203Z,8.77
2022-09-17T06:00:23.689Z,10.10
2022-09-17T06:02:58.143Z,9.35
2022-09-17T06:05:25.735Z,7.77
2022-09-17T06:07:53.234Z,8.57
2022-09-17T06:10:21.015Z,10.52
2022-09-17T06:12:59.554Z,9.02
2022-09-17T06:15:28.390Z,7.40
2022-09-17T06:17:55.891Z,8.23
2022-09-17T06:20:23.348Z,8.15
2022-09-17T06:22:58.832Z,7.65
2022-09-17T06:25:26.913Z,8.60
2022-09-17T06:27:54.343Z,8.90
2022-09-17T06:30:21.839Z,7.97
2022-09-17T06:32:49.312Z,8.40
2022-09-17T06:35:16.871Z,8.75
2022-09-17T06:37:44.907Z,8.15
2022-09-17T06:40:12.451Z,9.40
2022-09-17T06:42:41.471Z,10.00
2022-09-17T06:45:13.252Z,8.57
2022-09-17T06:47:43.330Z,8.70
2022-09-17T06:50:11.266Z,8.05
2022-09-17T06:52:38.970Z,7.90
2022-09-17T06:55:06.648Z,8.00
2022-09-17T06:57:34.108Z,8.05
2022-09-17T07:00:01.686Z,8.07
2022-09-17T07:02:30.356Z,8.38
2022-09-17T07:04:58.034Z,8.35
2022-09-17T07:07:25.577Z,8.13
2022-09-17T07:09:53.999Z,7.60
2022-09-17T07:12:22.551Z,8.43
2022-09-17T07:14:51.772Z,7.28
2022-09-17T07:17:20.894Z,7.75
2022-09-17T07:19:48.922Z,8.23
2022-09-17T07:22:16.830Z,11.57
2022-09-17T07:24:44.647Z,9.27
2022-09-17T07:27:12.411Z,8.88
2022-09-17T07:29:41.648Z,11.07
2022-09-17T07:32:09.144Z,9.33
2022-09-17T07:34:36.618Z,8.25
2022-09-17T07:37:04.264Z,8.35
2022-09-17T07:39:32.272Z,8.07
2022-09-17T07:42:00.053Z,6.93
2022-09-17T07:44:28.663Z,7.33
2022-09-17T07:46:56.232Z,7.93
2022-09-17T07:49:23.750Z,8.05
2022-09-17T07:51:51.354Z,8.73
2022-09-17T07:54:18.818Z,8.70
2022-09-17T07:56:46.394Z,6.93
2022-09-17T07:59:16.572Z,7.68
2022-09-17T08:01:44.838Z,8.52
2022-09-17T08:04:12.374Z,7.40
2022-09-17T08:06:41.330Z,7.80
2022-09-17T08:09:11.027Z,6.73
2022-09-17T08:11:55.109Z,9.10
2022-09-17T08:14:28.502Z,7.95
2022-09-17T08:16:57.486Z,8.25
2022-09-17T08:19:25.815Z,10.30
2022-09-17T08:21:53.347Z,8.73
2022-09-17T08:24:21.971Z,7.78
2022-09-17T08:26:49.412Z,7.45
2022-09-17T08:29:17.139Z,8.60
2022-09-17T08:31:44.749Z,7.95
2022-09-17T08:34:12.350Z,6.47
2022-09-17T08:36:40.082Z,7.53
2022-09-17T08:39:08.492Z,7.93
2022-09-17T08:42:05.709Z,6.28
2022-09-17T08:44:46.331Z,7.93
2022-09-17T08:47:26.068Z,7.67
2022-09-17T08:49:59.820Z,6.40
2022-09-17T08:52:59.755Z,6.38
2022-09-17T08:55:37.467Z,6.93
2022-09-17T08:58:13.918Z,6.30
2022-09-17T09:00:53.678Z,6.60
2022-09-17T09:03:52.032Z,6.63
2022-09-17T09:06:23.528Z,8.18
2022-09-17T09:08:57.352Z,7.18
2022-09-17T09:11:28.251Z,6.63
2022-09-17T09:14:12.569Z,6.17
2022-09-17T09:16:46.071Z,6.25
2022-09-17T09:19:23.444Z,7.68
2022-09-17T09:22:40.707Z,7.35
2022-09-17T09:25:25.214Z,8.60
2022-09-17T09:28:10.848Z,6.90
2022-09-17T09:31:07.576Z,6.43
2022-09-17T09:33:45.623Z,5.95
2022-09-17T09:36:16.978Z,5.90
2022-09-17T09:38:50.668Z,6.22
2022-09-17T09:41:40.953Z,6.23
2022-09-17T09:44:14.444Z,6.85
2022-09-17T09:47:05.398Z,7.20
2022-09-17T09:50:01.151Z,6.97
2022-09-17T09:53:00.134Z,6.75
2022-09-17T09:55:59.155Z,6.20
2022-09-17T09:58:40.774Z,7.57
2022-09-17T10:01:11.236Z,7.25
2022-09-17T10:03:46.436Z,7.55
2022-09-17T10:06:17.149Z,6.32
2022-09-17T10:08:50.836Z,5.87
2022-09-17T10:11:27.042Z,6.00
2022-09-17T10:14:15.663Z,6.18
2022-09-17T10:16:43.297Z,7.18
2022-09-17T10:19:13.835Z,6.63
2022-09-17T10:21:44.633Z,8.07
2022-09-17T10:24:25.538Z,5.75
2022-09-17T10:27:02.847Z,6.20
2022-09-17T10:29:30.680Z,5.60
2022-09-17T10:31:59.261Z,5.35
2022-09-17T10:34:27.956Z,6.30
2022-09-17T10:36:56.955Z,5.70
2022-09-17T10:39:27.866Z,7.30
2022-09-17T10:41:58.480Z,6.00
2022-09-17T10:44:35.076Z,7.18
2022-09-17T10:47:14.872Z,8.13
2022-09-17T10:49:48.818Z,6.07
2022-09-17T10:52:31.074Z,7.93
2022-09-17T10:55:19.159Z,6.47
2022-09-17T10:58:07.752Z,8.77
2022-09-17T11:01:08.453Z,7.17
2022-09-17T11:03:38.636Z,7.82
2022-09-17T11:06:21.228Z,7.47
2022-09-17T11:09:07.013Z,7.20
2022-09-17T11:11:59.769Z,9.70
2022-09-17T11:14:36.275Z,5.80
2022-09-17T11:17:09.566Z,8.60
2022-09-17T11:19:58.786Z,6.32
2022-09-17T11:22:35.472Z,9.02
2022-09-17T11:25:31.408Z,5.75
2022-09-17T11:28:24.750Z,5.00
2022-09-17T11:31:24.294Z,5.53
2022-09-17T11:34:00.876Z,8.07
2022-09-17T11:36:38.811Z,5.28
2022-09-17T11:39:16.302Z,7.60
2022-09-17T11:41:49.074Z,6.00
2022-09-17T11:44:24.890Z,5.32
2022-09-17T11:46:56.583Z,6.70
2022-09-17T11:49:42.199Z,5.18
2022-09-17T11:52:19.583Z,5.72
2022-09-17T11:54:50.043Z,8.10
2022-09-17T11:57:22.003Z,5.80
2022-09-17T11:59:58.671Z,6.88
2022-09-17T12:03:07.022Z,7.38
2022-09-17T12:05:43.499Z,6.55
2022-09-17T12:08:48.737Z,5.90
2022-09-17T12:11:27.818Z,5.82
2022-09-17T12:14:04.991Z,5.68
2022-09-17T12:16:45.221Z,8.02
2022-09-17T12:19:25.821Z,6.47
2022-09-17T12:22:25.387Z,6.40
2022-09-17T12:24:54.194Z,8.45
2022-09-17T12:27:38.171Z,11.60
2022-09-17T12:30:13.515Z,6.65
2022-09-17T12:32:50.493Z,7.15
2022-09-17T12:36:03.006Z,6.37
2022-09-17T12:38:50.712Z,6.43
2022-09-17T12:41:30.063Z,7.97
2022-09-17T12:43:58.935Z,6.57
2022-09-17T12:46:44.496Z,10.02
2022-09-17T12:49:32.919Z,10.40
2022-09-17T12:52:36.223Z,8.00
2022-09-17T12:55:09.457Z,6.82
2022-09-17T12:57:59.409Z,6.57
2022-09-17T13:00:27.962Z,6.53
2022-09-17T13:03:08.609Z,5.60
2022-09-17T13:05:57.823Z,7.82
2022-09-17T13:08:56.692Z,7.15
2022-09-17T13:11:26.899Z,7.75
2022-09-17T13:14:02.454Z,7.40
2022-09-17T13:16:48.465Z,8.33
2022-09-17T13:19:18.870Z,7.60
2022-09-17T13:22:20.424Z,11.23
2022-09-17T13:25:02.657Z,9.48
2022-09-17T13:27:31.312Z,7.93
2022-09-17T13:30:00.500Z,8.40
2022-09-17T13:32:33.993Z,8.65
2022-09-17T13:35:10.577Z,9.90
2022-09-17T13:37:39.971Z,8.88
2022-09-17T13:40:26.012Z,8.90
2022-09-17T13:42:59.617Z,9.33
2022-09-17T13:45:27.241Z,9.15
2022-09-17T13:47:56.606Z,7.75
2022-09-17T13:50:41.326Z,8.25
2022-09-17T13:53:14.799Z,6.68
2022-09-17T13:56:06.945Z,6.90
2022-09-17T13:58:36.913Z,8.52
2022-09-17T14:01:12.245Z,8.63
2022-09-17T14:03:44.619Z,9.30
2022-09-17T14:06:12.221Z,7.05
2022-09-17T14:08:45.744Z,9.57
2022-09-17T14:11:32.659Z,9.90
2022-09-17T14:14:06.410Z,10.63
2022-09-17T14:16:47.459Z,12.55
2022-09-17T14:19:16.123Z,12.20
2022-09-17T14:21:57.615Z,11.03
2022-09-17T14:24:30.115Z,11.45
2022-09-17T14:27:24.546Z,12.50
2022-09-17T14:30:18.995Z,9.95
2022-09-17T14:32:52.249Z,9.27
2022-09-17T14:35:44.629Z,11.27
2022-09-17T14:38:33.228Z,11.50
2022-09-17T14:41:05.688Z,10.25
2022-09-17T14:43:42.554Z,11.45
2022-09-17T14:46:18.133Z,8.40
2022-09-17T14:48:45.624Z,8.77
2022-09-17T14:51:25.743Z,9.40
2022-09-17T14:54:09.838Z,7.68
2022-09-17T14:56:44.408Z,9.30
2022-09-17T14:59:38.143Z,8.20
2022-09-17T15:02:27.560Z,8.33
2022-09-17T15:04:55.371Z,8.73
2022-09-17T15:07:23.667Z,9.20
2022-09-17T15:09:55.427Z,9.10
2022-09-17T15:12:30.293Z,10.10
2022-09-17T15:14:58.635Z,9.90
2022-09-17T15:17:26.282Z,11.52
2022-09-17T15:19:58.135Z,11.93
2022-09-17T15:22:32.681Z,11.60
2022-09-17T15:25:10.526Z,11.27
2022-09-17T15:27:44.048Z,11.03
2022-09-17T15:30:14.476Z,10.63
2022-09-17T15:32:49.422Z,11.63
2022-09-17T15:35:18.929Z,13.98
2022-09-17T15:40:43.145Z,10.80
2022-09-17T15:43:31.856Z,11.65
2022-09-17T15:46:27.135Z,10.48
2022-09-17T15:48:58.082Z,12.35
2022-09-17T15:51:35.002Z,10.07
2022-09-17T15:54:05.772Z,9.90
2022-09-17T15:56:35.924Z,12.00
2022-09-17T15:59:23.426Z,11.88
2022-09-17T16:01:54.016Z,9.90
2022-09-17T16:04:31.173Z,12.80
2022-09-17T16:07:24.535Z,11.80
2022-09-17T16:09:55.228Z,10.70
2022-09-17T16:12:25.212Z,10.20
2022-09-17T16:14:54.927Z,12.00
2022-09-17T16:17:33.343Z,13.48
2022-09-17T16:20:06.438Z,10.73
2022-09-17T16:22:35.486Z,11.30
2022-09-17T16:25:03.083Z,11.32
2022-09-17T16:27:43.105Z,16.35
2022-09-17T16:30:15.681Z,12.68
2022-09-17T16:32:43.321Z,12.13
2022-09-17T16:35:19.751Z,10.52
2022-09-17T16:37:52.937Z,14.05
2022-09-17T16:40:21.843Z,11.10
2022-09-17T16:42:49.815Z,11.32
2022-09-17T16:45:17.549Z,10.27
2022-09-17T16:47:45.396Z,12.25
2022-09-17T16:50:15.951Z,11.80
2022-09-17T16:52:44.974Z,13.88
2022-09-17T16:55:17.254Z,13.32
2022-09-17T16:57:44.997Z,11.80
2022-09-17T17:00:16.864Z,11.38
2022-09-17T17:02:45.166Z,12.73
2022-09-17T17:05:12.843Z,12.35
2022-09-17T17:07:40.454Z,10.48
2022-09-17T17:10:09.377Z,11.80
2022-09-17T17:12:38.605Z,11.45
2022-09-17T17:15:10.315Z,11.90
2022-09-17T17:17:40.963Z,17.67
2022-09-17T17:20:10.450Z,12.82
2022-09-17T17:22:38.128Z,11.50
2022-09-17T17:25:07.203Z,17.52
2022-09-17T17:27:35.560Z,12.05
2022-09-17T17:30:07.080Z,12.35
2022-09-17T17:32:36.470Z,12.65
2022-09-17T17:35:04.977Z,13.67
2022-09-17T17:37:33.893Z,11.73
2022-09-17T17:40:04.514Z,17.75
2022-09-17T17:42:37.446Z,15.88
2022-09-17T17:45:06.807Z,13.68
2022-09-17T17:47:34.823Z,13.73
2022-09-17T17:50:02.603Z,16.50
2022-09-17T17:52:32.105Z,14.98
2022-09-17T17:54:59.621Z,13.45
2022-09-17T17:57:27.060Z,14.98
2022-09-17T17:59:57.446Z,16.67
2022-09-17T18:02:25.040Z,16.05
2022-09-17T18:04:52.641Z,21.67
2022-09-17T18:07:20.077Z,19.55
2022-09-17T18:09:47.682Z,23.30
2022-09-17T18:12:15.379Z,18.50
2022-09-17T18:14:42.853Z,17.67
2022-09-17T18:17:10.380Z,21.40
2022-09-17T18:19:37.854Z,17.27
2022-09-17T18:22:05.335Z,21.98
2022-09-17T18:24:33.077Z,19.70
2022-09-17T18:27:00.548Z,19.52
2022-09-17T18:29:29.311Z,16.83
2022-09-17T18:31:56.803Z,18.75
2022-09-17T18:34:24.585Z,21.42
2022-09-17T18:36:52.627Z,17.30
2022-09-17T18:39:57.121Z,16.92
2022-09-17T18:42:09.925Z,17.05
2022-09-17T18:44:37.469Z,16.52
2022-09-17T18:47:05.051Z,17.52
2022-09-17T18:49:32.747Z,19.67
2022-09-17T18:52:01.246Z,17.00
2022-09-17T18:54:28.716Z,20.85
2022-09-17T18:56:56.246Z,24.38
2022-09-17T18:59:23.765Z,20.58
2022-09-17T19:01:51.262Z,19.43
2022-09-17T19:04:18.755Z,22.00
2022-09-17T19:06:46.308Z,21.85
2022-09-17T19:09:13.939Z,23.63
2022-09-17T19:11:41.375Z,18.92
2022-09-17T19:14:10.777Z,22.13
2022-09-17T19:16:38.399Z,22.83
2022-09-17T19:19:07.048Z,16.98
2022-09-17T19:21:34.793Z,19.58
2022-09-17T19:24:03.637Z,20.80
2022-09-17T19:26:31.081Z,20.80
2022-09-17T19:29:00.637Z,24.98
2022-09-17T19:31:28.763Z,21.23
2022-09-17T19:33:57.145Z,20.88
2022-09-17T19:36:24.739Z,22.30
2022-09-17T19:38:52.522Z,18.77
2022-09-17T19:41:23.456Z,23.45
2022-09-17T19:43:52.776Z,20.30
2022-09-17T19:46:22.536Z,21.45
2022-09-17T19:48:54.665Z,24.42
2022-09-17T19:51:25.293Z,20.27
2022-09-17T19:53:53.360Z,21.50
2022-09-17T19:56:23.129Z,20.70
2022-09-17T19:58:50.834Z,18.50
2022-09-17T20:01:19.445Z,19.15
2022-09-17T20:03:47.156Z,23.60
2022-09-17T20:06:17.278Z,25.13
2022-09-17T20:08:49.568Z,21.40
2022-09-17T20:11:18.553Z,21.40
2022-09-17T20:13:46.021Z,18.83
2022-09-17T20:16:17.138Z,20.27
2022-09-17T20:18:44.821Z,21.27
2022-09-17T20:21:18.592Z,22.15
2022-09-17T20:23:46.249Z,20.92
2022-09-17T20:26:14.434Z,18.50
2022-09-17T20:28:42.365Z,23.57
2022-09-17T20:31:21.785Z,17.75
2022-09-17T20:33:53.330Z,18.92
2022-09-17T20:36:23.026Z,16.00
2022-09-17T20:41:42.486Z,16.73
2022-09-17T20:44:09.954Z,16.58
2022-09-17T20:46:37.654Z,16.13
2022-09-17T20:49:05.721Z,18.52
2022-09-17T20:51:34.184Z,16.15
2022-09-17T20:54:02.140Z,16.40
2022-09-17T20:56:33.413Z,12.70
2022-09-17T20:59:23.552Z,14.00
2022-09-17T21:01:53.700Z,12.55
2022-09-17T21:04:22.376Z,13.68
2022-09-17T21:06:52.983Z,10.23
2022-09-17T21:09:20.632Z,12.88
2022-09-17T21:11:49.367Z,10.70
2022-09-17T21:14:18.527Z,11.80
2022-09-17T21:16:46.880Z,9.77
2022-09-17T21:19:16.399Z,9.33
2022-09-17T21:21:44.455Z,10.68
2022-09-17T21:24:12.516Z,10.77
2022-09-17T21:26:40.070Z,10.63
2022-09-17T21:29:07.585Z,9.50
2022-09-17T21:31:37.222Z,9.13
2022-09-17T21:34:11.149Z,8.85
2022-09-17T21:36:40.258Z,8.70
2022-09-17T21:39:12.089Z,10.50
2022-09-17T21:41:42.635Z,7.57
2022-09-17T21:44:12.238Z,7.97
2022-09-17T21:46:41.223Z,7.53
2022-09-17T21:49:09.354Z,10.35
2022-09-17T21:51:42.596Z,8.00
2022-09-17T21:54:13.205Z,8.98
2022-09-17T21:56:40.683Z,8.03
2022-09-17T21:59:11.302Z,8.70
2022-09-17T22:01:47.141Z,10.13
2022-09-17T22:04:20.666Z,9.40
2022-09-17T22:06:49.845Z,9.45
2022-09-17T22:09:20.640Z,8.63
2022-09-17T22:11:48.741Z,8.65
2022-09-17T22:14:19.858Z,10.23
2022-09-17T22:16:50.735Z,9.73
2022-09-17T22:19:19.793Z,8.80
2022-09-17T22:21:51.479Z,11.03
2022-09-17T22:24:20.719Z,7.40
2022-09-17T22:26:56.439Z,9.35
2022-09-17T22:29:25.321Z,7.40
2022-09-17T22:31:53.006Z,7.40
2022-09-17T22:34:22.608Z,13.10
2022-09-17T22:36:50.497Z,8.32
2022-09-17T22:39:21.048Z,7.88
2022-09-17T22:41:48.718Z,8.18
2022-09-17T22:44:18.526Z,7.90
2022-09-17T22:46:48.105Z,7.77
2022-09-17T22:49:16.064Z,9.02
2022-09-17T22:51:44.865Z,9.15
2022-09-17T22:54:14.101Z,8.88
2022-09-17T22:56:45.320Z,9.02
2022-09-17T22:59:13.039Z,8.20
2022-09-17T23:01:41.494Z,7.75
2022-09-17T23:04:09.900Z,8.05
2022-09-17T23:06:38.898Z,8.38
2022-09-17T23:09:07.462Z,8.55
2022-09-17T23:11:37.583Z,10.00
2022-09-17T23:14:12.290Z,8.30
2022-09-17T23:16:42.689Z,9.43
2022-09-17T23:19:10.895Z,8.75
2022-09-17T23:21:38.994Z,9.13
2022-09-17T23:24:06.794Z,9.30
2022-09-17T23:26:34.811Z,10.27
2022-09-17T23:29:05.356Z,8.25
2022-09-17T23:31:35.289Z,9.27
2022-09-17T23:34:05.208Z,9.55
2022-09-17T23:36:35.976Z,9.30
2022-09-17T23:39:05.008Z,8.43
2022-09-17T23:41:37.945Z,11.40
2022-09-17T23:44:13.786Z,9.35
2022-09-17T23:46:43.118Z,10.80
2022-09-17T23:49:12.593Z,11.07
2022-09-17T23:51:40.416Z,12.93
2022-09-17T23:54:08.031Z,11.55
2022-09-17T23:56:35.868Z,10.55
2022-09-17T23:59:04.302Z,10.43
